sensor_id;sensor_type;location;lat;lon;timestamp;pressure;altitude;pressure_sealevel;temperature;humidity
76551;BME280;68768;53.156;18.164;2023-08-17T00:00:48;101761.48;;;19.83;65.50
76551;BME280;68768;53.156;18.164;2023-08-17T00:03:33;101768.09;;;19.81;65.45
76551;BME280;68768;53.156;18.164;2023-08-17T00:05:59;101762.17;;;19.78;65.38
76551;BME280;68768;53.156;18.164;2023-08-17T00:08:25;101758.44;;;19.77;65.36
76551;BME280;68768;53.156;18.164;2023-08-17T00:10:52;101759.15;;;19.77;65.28
76551;BME280;68768;53.156;18.164;2023-08-17T00:13:18;101766.31;;;19.78;65.22
76551;BME280;68768;53.156;18.164;2023-08-17T00:15:44;101772.48;;;19.80;65.12
76551;BME280;68768;53.156;18.164;2023-08-17T00:18:11;101773.13;;;19.81;65.01
76551;BME280;68768;53.156;18.164;2023-08-17T00:20:38;101776.83;;;19.83;64.96
76551;BME280;68768;53.156;18.164;2023-08-17T00:23:04;101771.98;;;19.82;64.75
76551;BME280;68768;53.156;18.164;2023-08-17T00:25:30;101768.30;;;19.81;64.75
76551;BME280;68768;53.156;18.164;2023-08-17T00:27:56;101769.52;;;19.79;64.74
76551;BME280;68768;53.156;18.164;2023-08-17T00:30:23;101765.48;;;19.76;64.70
76551;BME280;68768;53.156;18.164;2023-08-17T00:32:49;101759.21;;;19.73;64.80
76551;BME280;68768;53.156;18.164;2023-08-17T00:35:16;101759.41;;;19.70;64.92
76551;BME280;68768;53.156;18.164;2023-08-17T00:37:42;101757.00;;;19.68;65.08
76551;BME280;68768;53.156;18.164;2023-08-17T00:40:09;101756.77;;;19.66;65.06
76551;BME280;68768;53.156;18.164;2023-08-17T00:42:36;101757.97;;;19.64;65.10
76551;BME280;68768;53.156;18.164;2023-08-17T00:45:02;101758.50;;;19.64;65.25
76551;BME280;68768;53.156;18.164;2023-08-17T00:47:29;101762.21;;;19.63;65.35
76551;BME280;68768;53.156;18.164;2023-08-17T00:49:56;101764.23;;;19.62;65.37
76551;BME280;68768;53.156;18.164;2023-08-17T00:52:24;101761.55;;;19.62;65.48
76551;BME280;68768;53.156;18.164;2023-08-17T00:54:50;101767.48;;;19.62;65.55
76551;BME280;68768;53.156;18.164;2023-08-17T00:57:16;101764.27;;;19.61;65.60
76551;BME280;68768;53.156;18.164;2023-08-17T00:59:43;101761.20;;;19.62;65.71
76551;BME280;68768;53.156;18.164;2023-08-17T01:02:10;101757.38;;;19.59;65.84
76551;BME280;68768;53.156;18.164;2023-08-17T01:04:37;101756.11;;;19.56;66.07
76551;BME280;68768;53.156;18.164;2023-08-17T01:07:03;101757.44;;;19.55;66.13
76551;BME280;68768;53.156;18.164;2023-08-17T01:09:29;101760.94;;;19.54;66.20
76551;BME280;68768;53.156;18.164;2023-08-17T01:12:07;101767.38;;;19.54;66.19
76551;BME280;68768;53.156;18.164;2023-08-17T01:14:56;101769.30;;;19.52;66.33
76551;BME280;68768;53.156;18.164;2023-08-17T01:17:42;101769.23;;;19.50;66.35
76551;BME280;68768;53.156;18.164;2023-08-17T01:20:11;101774.02;;;19.49;66.26
76551;BME280;68768;53.156;18.164;2023-08-17T01:22:41;101768.80;;;19.48;66.10
76551;BME280;68768;53.156;18.164;2023-08-17T01:25:09;101765.77;;;19.47;66.15
76551;BME280;68768;53.156;18.164;2023-08-17T01:27:45;101769.02;;;19.47;66.07
76551;BME280;68768;53.156;18.164;2023-08-17T01:30:13;101767.12;;;19.46;66.13
76551;BME280;68768;53.156;18.164;2023-08-17T01:35:24;101762.27;;;19.43;66.46
76551;BME280;68768;53.156;18.164;2023-08-17T01:37:55;101760.10;;;19.40;66.34
76551;BME280;68768;53.156;18.164;2023-08-17T01:40:26;101758.48;;;19.40;66.36
76551;BME280;68768;53.156;18.164;2023-08-17T01:42:55;101764.10;;;19.39;66.23
76551;BME280;68768;53.156;18.164;2023-08-17T01:45:22;101767.63;;;19.41;66.10
76551;BME280;68768;53.156;18.164;2023-08-17T01:47:49;101770.89;;;19.40;66.07
76551;BME280;68768;53.156;18.164;2023-08-17T01:50:15;101771.54;;;19.38;66.02
76551;BME280;68768;53.156;18.164;2023-08-17T01:52:41;101771.36;;;19.38;66.08
76551;BME280;68768;53.156;18.164;2023-08-17T01:55:08;101764.74;;;19.34;66.33
76551;BME280;68768;53.156;18.164;2023-08-17T01:57:35;101750.94;;;19.31;66.39
76551;BME280;68768;53.156;18.164;2023-08-17T02:00:04;101746.07;;;19.27;66.74
76551;BME280;68768;53.156;18.164;2023-08-17T02:02:40;101736.29;;;19.26;66.77
76551;BME280;68768;53.156;18.164;2023-08-17T02:05:07;101736.89;;;19.24;66.97
76551;BME280;68768;53.156;18.164;2023-08-17T02:07:34;101734.23;;;19.24;67.08
76551;BME280;68768;53.156;18.164;2023-08-17T02:10:00;101739.21;;;19.22;67.15
76551;BME280;68768;53.156;18.164;2023-08-17T02:12:26;101741.81;;;19.20;67.44
76551;BME280;68768;53.156;18.164;2023-08-17T02:14:53;101754.51;;;19.19;67.67
76551;BME280;68768;53.156;18.164;2023-08-17T02:17:19;101762.58;;;19.16;67.80
76551;BME280;68768;53.156;18.164;2023-08-17T02:19:47;101774.21;;;19.14;67.82
76551;BME280;68768;53.156;18.164;2023-08-17T02:22:14;101772.64;;;19.13;67.88
76551;BME280;68768;53.156;18.164;2023-08-17T02:24:40;101765.57;;;19.14;68.22
76551;BME280;68768;53.156;18.164;2023-08-17T02:27:09;101759.22;;;19.12;68.45
76551;BME280;68768;53.156;18.164;2023-08-17T02:29:35;101754.91;;;19.08;68.74
76551;BME280;68768;53.156;18.164;2023-08-17T02:32:02;101743.08;;;19.07;69.02
76551;BME280;68768;53.156;18.164;2023-08-17T02:34:28;101737.58;;;19.03;69.13
76551;BME280;68768;53.156;18.164;2023-08-17T02:36:54;101731.34;;;18.99;69.26
76551;BME280;68768;53.156;18.164;2023-08-17T02:39:21;101728.36;;;18.98;69.10
76551;BME280;68768;53.156;18.164;2023-08-17T02:41:47;101728.08;;;18.96;69.39
76551;BME280;68768;53.156;18.164;2023-08-17T02:44:15;101725.64;;;18.95;69.63
76551;BME280;68768;53.156;18.164;2023-08-17T02:46:41;101725.25;;;18.89;69.30
76551;BME280;68768;53.156;18.164;2023-08-17T02:49:08;101731.37;;;18.89;69.41
76551;BME280;68768;53.156;18.164;2023-08-17T02:51:34;101738.83;;;18.88;69.08
76551;BME280;68768;53.156;18.164;2023-08-17T02:54:00;101737.48;;;18.86;69.27
76551;BME280;68768;53.156;18.164;2023-08-17T02:56:27;101733.55;;;18.85;69.06
76551;BME280;68768;53.156;18.164;2023-08-17T02:58:53;101737.16;;;18.85;68.95
76551;BME280;68768;53.156;18.164;2023-08-17T03:01:20;101735.45;;;18.84;69.02
76551;BME280;68768;53.156;18.164;2023-08-17T03:03:49;101735.16;;;18.83;69.08
76551;BME280;68768;53.156;18.164;2023-08-17T03:06:15;101740.38;;;18.80;69.19
76551;BME280;68768;53.156;18.164;2023-08-17T03:08:41;101741.11;;;18.76;69.40
76551;BME280;68768;53.156;18.164;2023-08-17T03:11:11;101734.38;;;18.74;69.37
76551;BME280;68768;53.156;18.164;2023-08-17T03:13:37;101728.05;;;18.72;69.57
76551;BME280;68768;53.156;18.164;2023-08-17T03:16:04;101726.53;;;18.70;69.58
76551;BME280;68768;53.156;18.164;2023-08-17T03:18:30;101730.56;;;18.68;69.56
76551;BME280;68768;53.156;18.164;2023-08-17T03:20:57;101734.88;;;18.69;69.59
76551;BME280;68768;53.156;18.164;2023-08-17T03:23:24;101736.02;;;18.67;69.67
76551;BME280;68768;53.156;18.164;2023-08-17T03:25:52;101735.58;;;18.65;69.41
76551;BME280;68768;53.156;18.164;2023-08-17T03:28:19;101742.17;;;18.67;69.34
76551;BME280;68768;53.156;18.164;2023-08-17T03:30:46;101748.25;;;18.67;69.25
76551;BME280;68768;53.156;18.164;2023-08-17T03:33:12;101750.73;;;18.68;69.05
76551;BME280;68768;53.156;18.164;2023-08-17T03:35:39;101750.70;;;18.68;68.99
76551;BME280;68768;53.156;18.164;2023-08-17T03:38:07;101735.05;;;18.69;69.00
76551;BME280;68768;53.156;18.164;2023-08-17T03:40:34;101736.05;;;18.70;69.19
76551;BME280;68768;53.156;18.164;2023-08-17T03:43:00;101747.33;;;18.68;69.23
76551;BME280;68768;53.156;18.164;2023-08-17T03:45:27;101752.06;;;18.63;69.20
76551;BME280;68768;53.156;18.164;2023-08-17T03:47:53;101762.06;;;18.62;68.99
76551;BME280;68768;53.156;18.164;2023-08-17T03:50:21;101778.35;;;18.60;69.32
76551;BME280;68768;53.156;18.164;2023-08-17T03:52:47;101784.39;;;18.61;69.08
76551;BME280;68768;53.156;18.164;2023-08-17T03:55:14;101782.48;;;18.63;69.14
76551;BME280;68768;53.156;18.164;2023-08-17T03:57:40;101780.02;;;18.62;69.18
76551;BME280;68768;53.156;18.164;2023-08-17T04:00:07;101780.15;;;18.60;69.02
76551;BME280;68768;53.156;18.164;2023-08-17T04:02:39;101789.13;;;18.60;69.00
76551;BME280;68768;53.156;18.164;2023-08-17T04:05:06;101805.48;;;18.60;68.87
76551;BME280;68768;53.156;18.164;2023-08-17T04:07:33;101815.34;;;18.61;68.99
76551;BME280;68768;53.156;18.164;2023-08-17T04:09:59;101812.20;;;18.62;68.85
76551;BME280;68768;53.156;18.164;2023-08-17T04:12:26;101821.95;;;18.64;68.98
76551;BME280;68768;53.156;18.164;2023-08-17T04:14:54;101833.04;;;18.65;68.98
76551;BME280;68768;53.156;18.164;2023-08-17T04:17:20;101831.12;;;18.68;69.11
76551;BME280;68768;53.156;18.164;2023-08-17T04:19:47;101826.80;;;18.68;69.23
76551;BME280;68768;53.156;18.164;2023-08-17T04:22:14;101828.35;;;18.69;69.24
76551;BME280;68768;53.156;18.164;2023-08-17T04:24:40;101828.88;;;18.69;69.40
76551;BME280;68768;53.156;18.164;2023-08-17T04:27:07;101830.00;;;18.69;69.63
76551;BME280;68768;53.156;18.164;2023-08-17T04:29:33;101822.61;;;18.69;69.50
76551;BME280;68768;53.156;18.164;2023-08-17T04:32:01;101821.98;;;18.71;69.47
76551;BME280;68768;53.156;18.164;2023-08-17T04:34:28;101826.80;;;18.74;69.77
76551;BME280;68768;53.156;18.164;2023-08-17T04:36:54;101824.63;;;18.75;69.70
76551;BME280;68768;53.156;18.164;2023-08-17T04:39:20;101823.95;;;18.77;69.97
76551;BME280;68768;53.156;18.164;2023-08-17T04:41:47;101824.27;;;18.78;69.92
76551;BME280;68768;53.156;18.164;2023-08-17T04:44:16;101840.11;;;18.78;69.89
76551;BME280;68768;53.156;18.164;2023-08-17T04:46:42;101847.38;;;18.80;70.05
76551;BME280;68768;53.156;18.164;2023-08-17T04:49:09;101850.98;;;18.83;70.29
76551;BME280;68768;53.156;18.164;2023-08-17T04:51:35;101850.29;;;18.85;70.66
76551;BME280;68768;53.156;18.164;2023-08-17T04:54:02;101839.19;;;18.84;70.59
76551;BME280;68768;53.156;18.164;2023-08-17T04:56:28;101831.19;;;18.86;70.48
76551;BME280;68768;53.156;18.164;2023-08-17T04:58:55;101830.95;;;18.87;70.57
76551;BME280;68768;53.156;18.164;2023-08-17T05:01:22;101834.20;;;18.90;70.35
76551;BME280;68768;53.156;18.164;2023-08-17T05:03:48;101833.95;;;18.92;70.40
76551;BME280;68768;53.156;18.164;2023-08-17T05:06:15;101839.05;;;18.93;70.37
76551;BME280;68768;53.156;18.164;2023-08-17T05:08:42;101842.93;;;18.95;70.50
76551;BME280;68768;53.156;18.164;2023-08-17T05:11:09;101840.52;;;18.96;70.69
76551;BME280;68768;53.156;18.164;2023-08-17T05:13:35;101832.54;;;19.01;70.96
76551;BME280;68768;53.156;18.164;2023-08-17T05:16:02;101836.37;;;19.06;70.93
76551;BME280;68768;53.156;18.164;2023-08-17T05:18:30;101839.63;;;19.09;71.00
76551;BME280;68768;53.156;18.164;2023-08-17T05:20:57;101842.98;;;19.13;70.83
76551;BME280;68768;53.156;18.164;2023-08-17T05:23:23;101841.21;;;19.19;70.92
76551;BME280;68768;53.156;18.164;2023-08-17T05:25:50;101836.69;;;19.26;71.03
76551;BME280;68768;53.156;18.164;2023-08-17T05:28:17;101836.71;;;19.32;70.85
76551;BME280;68768;53.156;18.164;2023-08-17T05:30:43;101827.91;;;19.38;70.45
76551;BME280;68768;53.156;18.164;2023-08-17T05:33:10;101818.96;;;19.46;70.44
76551;BME280;68768;53.156;18.164;2023-08-17T05:35:36;101812.06;;;19.54;69.84
76551;BME280;68768;53.156;18.164;2023-08-17T05:38:02;101807.34;;;19.61;69.66
76551;BME280;68768;53.156;18.164;2023-08-17T05:40:30;101809.60;;;19.68;69.52
76551;BME280;68768;53.156;18.164;2023-08-17T05:42:56;101810.61;;;19.72;69.02
76551;BME280;68768;53.156;18.164;2023-08-17T05:45:23;101821.44;;;19.72;68.52
76551;BME280;68768;53.156;18.164;2023-08-17T05:47:50;101826.62;;;19.70;68.24
76551;BME280;68768;53.156;18.164;2023-08-17T05:50:16;101821.15;;;19.68;68.55
76551;BME280;68768;53.156;18.164;2023-08-17T05:52:43;101811.08;;;19.64;68.16
76551;BME280;68768;53.156;18.164;2023-08-17T05:55:09;101799.58;;;19.58;67.87
76551;BME280;68768;53.156;18.164;2023-08-17T05:57:35;101800.36;;;19.54;67.99
76551;BME280;68768;53.156;18.164;2023-08-17T06:00:02;101801.17;;;19.52;68.08
76551;BME280;68768;53.156;18.164;2023-08-17T06:02:39;101800.15;;;19.48;68.11
76551;BME280;68768;53.156;18.164;2023-08-17T06:05:05;101791.55;;;19.44;67.95
76551;BME280;68768;53.156;18.164;2023-08-17T06:07:32;101801.84;;;19.43;67.99
76551;BME280;68768;53.156;18.164;2023-08-17T06:09:58;101809.67;;;19.42;67.74
76551;BME280;68768;53.156;18.164;2023-08-17T06:12:25;101823.30;;;19.43;67.78
76551;BME280;68768;53.156;18.164;2023-08-17T06:14:51;101832.18;;;19.48;67.51
76551;BME280;68768;53.156;18.164;2023-08-17T06:17:18;101838.77;;;19.53;67.35
76551;BME280;68768;53.156;18.164;2023-08-17T06:19:44;101844.98;;;19.57;67.12
76551;BME280;68768;53.156;18.164;2023-08-17T06:22:11;101849.96;;;19.65;67.05
76551;BME280;68768;53.156;18.164;2023-08-17T06:24:38;101855.89;;;19.74;67.05
76551;BME280;68768;53.156;18.164;2023-08-17T06:27:04;101859.11;;;19.87;67.01
76551;BME280;68768;53.156;18.164;2023-08-17T06:29:30;101858.15;;;19.97;66.20
76551;BME280;68768;53.156;18.164;2023-08-17T06:31:57;101852.33;;;20.04;66.02
76551;BME280;68768;53.156;18.164;2023-08-17T06:34:23;101849.41;;;20.13;65.63
76551;BME280;68768;53.156;18.164;2023-08-17T06:37:03;101849.92;;;20.23;65.27
76551;BME280;68768;53.156;18.164;2023-08-17T06:39:29;101849.62;;;20.37;65.04
76551;BME280;68768;53.156;18.164;2023-08-17T06:41:56;101840.95;;;20.49;64.62
76551;BME280;68768;53.156;18.164;2023-08-17T06:44:22;101832.39;;;20.56;64.71
76551;BME280;68768;53.156;18.164;2023-08-17T06:46:48;101840.65;;;20.65;64.36
76551;BME280;68768;53.156;18.164;2023-08-17T06:49:15;101845.59;;;20.76;64.37
76551;BME280;68768;53.156;18.164;2023-08-17T06:51:41;101847.48;;;20.97;63.51
76551;BME280;68768;53.156;18.164;2023-08-17T06:54:08;101846.00;;;21.06;63.70
76551;BME280;68768;53.156;18.164;2023-08-17T06:56:35;101850.38;;;21.16;63.64
76551;BME280;68768;53.156;18.164;2023-08-17T06:59:02;101853.80;;;21.28;63.41
76551;BME280;68768;53.156;18.164;2023-08-17T07:01:29;101859.23;;;21.34;62.72
76551;BME280;68768;53.156;18.164;2023-08-17T07:03:55;101859.38;;;21.25;62.75
76551;BME280;68768;53.156;18.164;2023-08-17T07:06:24;101859.05;;;21.19;62.91
76551;BME280;68768;53.156;18.164;2023-08-17T07:08:50;101856.54;;;21.10;62.88
76551;BME280;68768;53.156;18.164;2023-08-17T07:11:18;101857.61;;;21.02;63.11
76551;BME280;68768;53.156;18.164;2023-08-17T07:13:45;101849.85;;;20.97;63.35
76551;BME280;68768;53.156;18.164;2023-08-17T07:16:11;101844.56;;;20.91;63.58
76551;BME280;68768;53.156;18.164;2023-08-17T07:18:38;101843.10;;;20.89;63.78
76551;BME280;68768;53.156;18.164;2023-08-17T07:21:04;101842.58;;;20.89;64.00
76551;BME280;68768;53.156;18.164;2023-08-17T07:23:31;101848.84;;;20.92;63.97
76551;BME280;68768;53.156;18.164;2023-08-17T07:25:57;101847.73;;;20.98;63.81
76551;BME280;68768;53.156;18.164;2023-08-17T07:28:24;101859.04;;;21.02;63.51
76551;BME280;68768;53.156;18.164;2023-08-17T07:30:50;101857.77;;;21.02;63.26
76551;BME280;68768;53.156;18.164;2023-08-17T07:33:17;101856.83;;;21.03;63.58
76551;BME280;68768;53.156;18.164;2023-08-17T07:35:43;101865.70;;;21.03;63.03
76551;BME280;68768;53.156;18.164;2023-08-17T07:38:09;101866.71;;;21.01;63.33
76551;BME280;68768;53.156;18.164;2023-08-17T07:40:36;101868.00;;;21.06;63.42
76551;BME280;68768;53.156;18.164;2023-08-17T07:43:03;101872.77;;;21.11;63.33
76551;BME280;68768;53.156;18.164;2023-08-17T07:45:29;101870.99;;;21.16;63.05
76551;BME280;68768;53.156;18.164;2023-08-17T07:47:56;101864.61;;;21.20;62.87
76551;BME280;68768;53.156;18.164;2023-08-17T07:50:22;101855.31;;;21.27;63.26
76551;BME280;68768;53.156;18.164;2023-08-17T07:52:48;101856.05;;;21.41;63.17
76551;BME280;68768;53.156;18.164;2023-08-17T07:55:15;101852.16;;;21.50;62.87
76551;BME280;68768;53.156;18.164;2023-08-17T07:57:41;101850.52;;;21.58;62.60
76551;BME280;68768;53.156;18.164;2023-08-17T08:00:08;101842.92;;;21.64;62.25
76551;BME280;68768;53.156;18.164;2023-08-17T08:02:35;101841.52;;;21.66;61.87
76551;BME280;68768;53.156;18.164;2023-08-17T08:05:01;101839.47;;;21.67;61.89
76551;BME280;68768;53.156;18.164;2023-08-17T08:07:28;101843.08;;;21.70;61.66
76551;BME280;68768;53.156;18.164;2023-08-17T08:09:55;101849.77;;;21.67;61.65
76551;BME280;68768;53.156;18.164;2023-08-17T08:12:21;101848.24;;;21.68;61.51
76551;BME280;68768;53.156;18.164;2023-08-17T08:14:48;101851.67;;;21.65;61.26
76551;BME280;68768;53.156;18.164;2023-08-17T08:17:15;101856.45;;;21.64;61.49
76551;BME280;68768;53.156;18.164;2023-08-17T08:19:41;101857.56;;;21.67;61.57
76551;BME280;68768;53.156;18.164;2023-08-17T08:22:07;101861.40;;;21.71;61.58
76551;BME280;68768;53.156;18.164;2023-08-17T08:24:34;101871.50;;;21.90;61.23
76551;BME280;68768;53.156;18.164;2023-08-17T08:27:01;101879.36;;;22.29;60.89
76551;BME280;68768;53.156;18.164;2023-08-17T08:29:27;101888.25;;;22.73;59.84
76551;BME280;68768;53.156;18.164;2023-08-17T08:31:54;101889.84;;;23.19;59.88
76551;BME280;68768;53.156;18.164;2023-08-17T08:34:20;101876.73;;;23.64;58.53
76551;BME280;68768;53.156;18.164;2023-08-17T08:36:46;101866.59;;;23.99;57.89
76551;BME280;68768;53.156;18.164;2023-08-17T08:39:14;101858.77;;;24.31;56.45
76551;BME280;68768;53.156;18.164;2023-08-17T08:41:41;101851.27;;;24.57;57.09
76551;BME280;68768;53.156;18.164;2023-08-17T08:44:08;101847.21;;;24.89;55.44
76551;BME280;68768;53.156;18.164;2023-08-17T08:46:35;101839.52;;;25.02;54.87
76551;BME280;68768;53.156;18.164;2023-08-17T08:49:04;101830.02;;;24.95;54.88
76551;BME280;68768;53.156;18.164;2023-08-17T08:51:35;101814.54;;;24.78;54.41
76551;BME280;68768;53.156;18.164;2023-08-17T08:54:05;101808.98;;;24.59;54.79
76551;BME280;68768;53.156;18.164;2023-08-17T08:56:38;101799.99;;;24.44;54.54
76551;BME280;68768;53.156;18.164;2023-08-17T08:59:06;101792.36;;;24.26;54.19
76551;BME280;68768;53.156;18.164;2023-08-17T09:01:34;101790.27;;;24.13;54.95
76551;BME280;68768;53.156;18.164;2023-08-17T09:04:01;101793.81;;;24.00;54.82
76551;BME280;68768;53.156;18.164;2023-08-17T09:06:29;101806.79;;;23.92;54.92
76551;BME280;68768;53.156;18.164;2023-08-17T09:09:01;101810.23;;;23.88;55.16
76551;BME280;68768;53.156;18.164;2023-08-17T09:11:28;101812.52;;;23.97;55.41
76551;BME280;68768;53.156;18.164;2023-08-17T09:13:56;101807.98;;;24.16;55.68
76551;BME280;68768;53.156;18.164;2023-08-17T09:16:22;101800.68;;;24.45;54.71
76551;BME280;68768;53.156;18.164;2023-08-17T09:18:48;101799.15;;;24.66;54.50
76551;BME280;68768;53.156;18.164;2023-08-17T09:21:23;101801.84;;;24.73;54.06
76551;BME280;68768;53.156;18.164;2023-08-17T09:23:53;101801.70;;;24.77;53.91
76551;BME280;68768;53.156;18.164;2023-08-17T09:26:20;101808.16;;;24.80;54.44
76551;BME280;68768;53.156;18.164;2023-08-17T09:28:50;101810.51;;;24.80;53.99
76551;BME280;68768;53.156;18.164;2023-08-17T09:31:20;101816.15;;;24.67;53.86
76551;BME280;68768;53.156;18.164;2023-08-17T09:33:51;101813.05;;;24.47;54.50
76551;BME280;68768;53.156;18.164;2023-08-17T09:36:21;101810.09;;;24.34;54.45
76551;BME280;68768;53.156;18.164;2023-08-17T09:38:53;101809.86;;;24.18;55.00
76551;BME280;68768;53.156;18.164;2023-08-17T09:41:19;101806.62;;;24.06;55.30
76551;BME280;68768;53.156;18.164;2023-08-17T09:43:46;101805.89;;;23.99;55.38
76551;BME280;68768;53.156;18.164;2023-08-17T09:46:14;101796.08;;;23.90;55.34
76551;BME280;68768;53.156;18.164;2023-08-17T09:48:43;101788.29;;;23.76;55.59
76551;BME280;68768;53.156;18.164;2023-08-17T09:51:10;101771.13;;;23.66;56.05
76551;BME280;68768;53.156;18.164;2023-08-17T09:53:36;101766.60;;;23.54;56.16
76551;BME280;68768;53.156;18.164;2023-08-17T09:56:05;101761.06;;;23.48;56.46
76551;BME280;68768;53.156;18.164;2023-08-17T09:58:33;101758.28;;;23.46;56.55
76551;BME280;68768;53.156;18.164;2023-08-17T10:01:03;101752.16;;;23.48;56.56
76551;BME280;68768;53.156;18.164;2023-08-17T10:03:33;101750.13;;;23.49;56.49
76551;BME280;68768;53.156;18.164;2023-08-17T10:06:09;101743.33;;;23.50;56.43
76551;BME280;68768;53.156;18.164;2023-08-17T10:08:39;101728.73;;;23.54;56.60
76551;BME280;68768;53.156;18.164;2023-08-17T10:11:08;101728.80;;;23.69;56.56
76551;BME280;68768;53.156;18.164;2023-08-17T10:13:51;101727.33;;;23.81;56.59
76551;BME280;68768;53.156;18.164;2023-08-17T10:22:34;101707.13;;;24.12;55.67
76551;BME280;68768;53.156;18.164;2023-08-17T10:25:05;101701.88;;;24.16;55.71
76551;BME280;68768;53.156;18.164;2023-08-17T10:27:33;101694.77;;;24.16;55.64
76551;BME280;68768;53.156;18.164;2023-08-17T10:30:01;101695.77;;;24.17;55.83
76551;BME280;68768;53.156;18.164;2023-08-17T10:32:28;101696.52;;;24.19;55.60
76551;BME280;68768;53.156;18.164;2023-08-17T10:34:55;101697.50;;;24.26;55.80
76551;BME280;68768;53.156;18.164;2023-08-17T10:37:22;101696.45;;;24.35;56.02
76551;BME280;68768;53.156;18.164;2023-08-17T10:39:50;101700.14;;;24.49;56.21
76551;BME280;68768;53.156;18.164;2023-08-17T10:42:34;101700.44;;;24.63;55.91
76551;BME280;68768;53.156;18.164;2023-08-17T10:45:28;101703.81;;;24.75;55.95
76551;BME280;68768;53.156;18.164;2023-08-17T10:50:34;101707.40;;;24.94;55.37
76551;BME280;68768;53.156;18.164;2023-08-17T10:53:08;101699.69;;;24.99;55.43
76551;BME280;68768;53.156;18.164;2023-08-17T10:55:36;101699.75;;;25.05;55.52
76551;BME280;68768;53.156;18.164;2023-08-17T10:58:03;101695.52;;;25.10;55.44
76551;BME280;68768;53.156;18.164;2023-08-17T11:00:35;101699.38;;;25.18;55.17
76551;BME280;68768;53.156;18.164;2023-08-17T11:03:07;101703.23;;;25.26;55.16
76551;BME280;68768;53.156;18.164;2023-08-17T11:05:48;101706.41;;;25.31;54.90
76551;BME280;68768;53.156;18.164;2023-08-17T11:08:31;101703.68;;;25.31;54.85
76551;BME280;68768;53.156;18.164;2023-08-17T11:13:36;101712.29;;;25.28;55.11
76551;BME280;68768;53.156;18.164;2023-08-17T11:16:03;101713.25;;;25.32;55.20
76551;BME280;68768;53.156;18.164;2023-08-17T11:18:33;101713.36;;;25.37;55.15
76551;BME280;68768;53.156;18.164;2023-08-17T11:21:04;101722.35;;;25.43;54.90
76551;BME280;68768;53.156;18.164;2023-08-17T11:23:33;101727.81;;;25.47;54.67
76551;BME280;68768;53.156;18.164;2023-08-17T11:26:00;101725.75;;;25.49;54.89
76551;BME280;68768;53.156;18.164;2023-08-17T11:28:26;101727.55;;;25.50;54.62
76551;BME280;68768;53.156;18.164;2023-08-17T11:31:00;101728.17;;;25.47;54.64
76551;BME280;68768;53.156;18.164;2023-08-17T11:33:28;101726.70;;;25.47;54.59
76551;BME280;68768;53.156;18.164;2023-08-17T11:35:58;101723.92;;;25.48;54.63
76551;BME280;68768;53.156;18.164;2023-08-17T11:38:38;101719.41;;;25.51;54.63
76551;BME280;68768;53.156;18.164;2023-08-17T11:41:05;101715.52;;;25.54;54.44
76551;BME280;68768;53.156;18.164;2023-08-17T11:43:35;101713.73;;;25.58;54.40
76551;BME280;68768;53.156;18.164;2023-08-17T11:46:02;101714.05;;;25.63;54.83
76551;BME280;68768;53.156;18.164;2023-08-17T11:48:28;101707.41;;;25.73;54.61
76551;BME280;68768;53.156;18.164;2023-08-17T11:50:55;101695.79;;;25.79;54.52
76551;BME280;68768;53.156;18.164;2023-08-17T11:53:21;101693.17;;;25.84;54.52
76551;BME280;68768;53.156;18.164;2023-08-17T11:55:48;101695.50;;;25.90;54.35
76551;BME280;68768;53.156;18.164;2023-08-17T11:58:15;101693.88;;;25.95;54.31
76551;BME280;68768;53.156;18.164;2023-08-17T12:00:43;101692.32;;;25.96;54.02
76551;BME280;68768;53.156;18.164;2023-08-17T12:03:13;101699.66;;;25.95;53.83
76551;BME280;68768;53.156;18.164;2023-08-17T12:05:41;101701.27;;;25.95;54.13
76551;BME280;68768;53.156;18.164;2023-08-17T12:08:08;101703.77;;;25.98;54.23
76551;BME280;68768;53.156;18.164;2023-08-17T12:10:37;101701.41;;;26.00;54.01
76551;BME280;68768;53.156;18.164;2023-08-17T12:13:04;101698.85;;;26.02;54.17
76551;BME280;68768;53.156;18.164;2023-08-17T12:15:34;101693.33;;;26.05;54.09
76551;BME280;68768;53.156;18.164;2023-08-17T12:18:04;101690.63;;;26.09;54.12
76551;BME280;68768;53.156;18.164;2023-08-17T12:20:34;101698.45;;;26.13;54.34
76551;BME280;68768;53.156;18.164;2023-08-17T12:23:03;101693.23;;;26.16;54.02
76551;BME280;68768;53.156;18.164;2023-08-17T12:25:30;101693.64;;;26.17;54.00
76551;BME280;68768;53.156;18.164;2023-08-17T12:28:00;101701.66;;;26.20;53.76
76551;BME280;68768;53.156;18.164;2023-08-17T12:30:31;101705.52;;;26.19;53.53
76551;BME280;68768;53.156;18.164;2023-08-17T12:33:03;101698.66;;;26.12;53.76
76551;BME280;68768;53.156;18.164;2023-08-17T12:35:32;101696.02;;;26.10;53.84
76551;BME280;68768;53.156;18.164;2023-08-17T12:37:58;101695.14;;;26.09;53.94
76551;BME280;68768;53.156;18.164;2023-08-17T12:40:24;101695.81;;;26.10;53.94
76551;BME280;68768;53.156;18.164;2023-08-17T12:42:51;101693.35;;;26.13;53.94
76551;BME280;68768;53.156;18.164;2023-08-17T12:45:17;101689.16;;;26.17;54.00
76551;BME280;68768;53.156;18.164;2023-08-17T12:47:44;101689.15;;;26.21;53.95
76551;BME280;68768;53.156;18.164;2023-08-17T12:50:10;101688.08;;;26.23;54.01
76551;BME280;68768;53.156;18.164;2023-08-17T12:52:37;101684.85;;;26.25;53.92
76551;BME280;68768;53.156;18.164;2023-08-17T12:55:03;101682.54;;;26.28;54.26
76551;BME280;68768;53.156;18.164;2023-08-17T12:57:30;101676.75;;;26.32;53.89